createdAt,value
2017-12-15T00:01:10.551Z,13.03
2017-12-15T00:03:38.115Z,17.00
2017-12-15T00:06:05.732Z,18.63
2017-12-15T00:08:33.397Z,18.37
2017-12-15T00:11:01.576Z,17.53
2017-12-15T00:13:29.230Z,16.77
2017-12-15T00:15:56.787Z,15.67
2017-12-15T00:18:24.453Z,14.57
2017-12-15T00:20:52.014Z,14.90
2017-12-15T00:23:19.547Z,13.93
2017-12-15T00:25:47.091Z,14.37
2017-12-15T00:28:14.656Z,12.93
2017-12-15T00:30:43.023Z,13.50
2017-12-15T00:33:10.735Z,13.37
2017-12-15T00:35:38.310Z,14.37
2017-12-15T00:38:05.838Z,13.37
2017-12-15T00:40:33.699Z,13.87
2017-12-15T00:43:01.254Z,13.90
2017-12-15T00:45:28.818Z,13.17
2017-12-15T00:47:56.384Z,13.77
2017-12-15T00:50:23.938Z,13.40
2017-12-15T00:52:51.536Z,13.07
2017-12-15T00:55:19.231Z,13.77
2017-12-15T00:57:46.816Z,13.60
2017-12-15T01:00:14.361Z,12.20
2017-12-15T01:02:42.691Z,14.10
2017-12-15T01:05:10.426Z,13.13
2017-12-15T01:07:37.962Z,13.10
2017-12-15T01:10:06.279Z,13.53
2017-12-15T01:12:33.828Z,11.80
2017-12-15T01:15:01.455Z,12.60
2017-12-15T01:17:29.846Z,13.50
2017-12-15T01:19:57.542Z,13.30
2017-12-15T01:22:25.116Z,13.17
2017-12-15T01:24:52.680Z,13.37
2017-12-15T01:27:20.219Z,13.60
2017-12-15T01:29:47.834Z,13.50
2017-12-15T01:32:16.173Z,13.40
2017-12-15T01:34:43.923Z,14.10
2017-12-15T01:37:11.488Z,14.33
2017-12-15T01:39:39.005Z,13.50
2017-12-15T01:42:07.354Z,14.63
2017-12-15T01:44:34.966Z,15.23
2017-12-15T01:47:02.515Z,14.50
2017-12-15T01:49:30.884Z,15.40
2017-12-15T01:51:58.483Z,14.07
2017-12-15T01:54:26.153Z,14.90
2017-12-15T01:56:53.694Z,14.83
2017-12-15T01:59:21.279Z,14.80
2017-12-15T02:01:48.823Z,14.67
2017-12-15T02:04:16.449Z,14.97
2017-12-15T02:06:44.801Z,14.70
2017-12-15T02:09:12.455Z,15.30
2017-12-15T02:11:40.032Z,13.90
2017-12-15T02:14:08.482Z,15.47
2017-12-15T02:16:36.147Z,14.27
2017-12-15T02:19:03.813Z,15.30
2017-12-15T02:21:31.347Z,15.07
2017-12-15T02:23:58.931Z,15.73
2017-12-15T02:26:26.492Z,15.13
2017-12-15T02:28:54.048Z,15.20
2017-12-15T02:31:21.837Z,15.80
2017-12-15T02:33:49.385Z,15.10
2017-12-15T02:36:16.965Z,17.40
2017-12-15T02:38:44.539Z,16.97
2017-12-15T02:41:12.889Z,17.30
2017-12-15T02:43:40.455Z,15.60
2017-12-15T02:46:08.596Z,15.87
2017-12-15T02:48:36.199Z,15.50
2017-12-15T02:51:03.775Z,15.73
2017-12-15T02:53:31.587Z,16.77
2017-12-15T02:55:59.131Z,15.70
2017-12-15T02:58:27.068Z,15.60
2017-12-15T03:00:54.634Z,17.37
2017-12-15T03:03:22.185Z,16.67
2017-12-15T03:05:49.883Z,17.43
2017-12-15T03:08:17.440Z,18.63
2017-12-15T03:10:44.960Z,17.30
2017-12-15T03:13:12.588Z,16.87
2017-12-15T03:15:40.926Z,18.47
2017-12-15T03:18:08.481Z,17.80
2017-12-15T03:20:36.073Z,18.00
2017-12-15T03:23:03.632Z,19.57
2017-12-15T03:25:31.178Z,18.63
2017-12-15T03:27:58.749Z,16.70
2017-12-15T03:30:26.313Z,17.47
2017-12-15T03:32:53.936Z,17.77
2017-12-15T03:35:21.512Z,18.40
2017-12-15T03:37:49.047Z,19.87
2017-12-15T03:40:16.691Z,18.97
2017-12-15T03:42:44.361Z,20.10
2017-12-15T03:45:11.925Z,18.53
2017-12-15T03:47:39.487Z,19.80
2017-12-15T03:50:07.073Z,19.90
2017-12-15T03:52:34.716Z,19.90
2017-12-15T03:55:02.264Z,19.87
2017-12-15T03:57:29.840Z,19.70
2017-12-15T03:59:57.397Z,21.20
2017-12-15T04:02:25.749Z,22.67
2017-12-15T04:04:53.906Z,22.17
2017-12-15T04:07:21.536Z,21.40
2017-12-15T04:09:49.098Z,21.57
2017-12-15T04:12:16.667Z,19.20
2017-12-15T04:14:45.488Z,18.93
2017-12-15T04:17:13.089Z,19.50
2017-12-15T04:19:40.638Z,20.40
2017-12-15T04:22:08.983Z,17.27
2017-12-15T04:24:36.550Z,18.80
2017-12-15T04:27:04.144Z,18.03
2017-12-15T04:29:32.474Z,19.13
2017-12-15T04:32:00.078Z,18.80
2017-12-15T04:34:28.403Z,18.90
2017-12-15T04:36:56.163Z,19.43
2017-12-15T04:39:23.750Z,19.20
2017-12-15T04:41:51.528Z,19.57
2017-12-15T04:44:20.049Z,20.73
2017-12-15T04:46:48.210Z,19.13
2017-12-15T04:49:15.908Z,18.23
2017-12-15T04:51:43.789Z,19.23
2017-12-15T04:54:11.655Z,18.20
2017-12-15T04:56:39.272Z,18.10
2017-12-15T04:59:06.806Z,18.40
2017-12-15T05:01:34.385Z,18.60
2017-12-15T05:04:02.701Z,18.37
2017-12-15T05:06:30.310Z,19.53
2017-12-15T05:08:57.867Z,19.00
2017-12-15T05:11:25.451Z,19.90
2017-12-15T05:13:53.071Z,20.30
2017-12-15T05:16:20.692Z,19.43
2017-12-15T05:18:48.347Z,20.60
2017-12-15T05:21:15.911Z,19.73
2017-12-15T05:23:43.463Z,20.13
2017-12-15T05:26:11.054Z,19.30
2017-12-15T05:28:38.625Z,19.43
2017-12-15T05:31:06.395Z,19.50
2017-12-15T05:33:33.990Z,21.53
2017-12-15T05:36:01.551Z,21.23
2017-12-15T05:38:29.851Z,22.90
2017-12-15T05:40:57.415Z,22.00
2017-12-15T05:43:24.984Z,23.17
2017-12-15T05:45:52.533Z,23.10
2017-12-15T05:48:20.090Z,22.73
2017-12-15T05:50:47.638Z,22.80
2017-12-15T05:53:15.926Z,22.83
2017-12-15T05:55:43.477Z,21.97
2017-12-15T05:58:11.167Z,24.57
2017-12-15T06:00:38.704Z,21.60
2017-12-15T06:03:06.227Z,22.23
2017-12-15T06:05:33.807Z,20.00
2017-12-15T06:08:02.145Z,18.93
2017-12-15T06:10:29.737Z,19.47
2017-12-15T06:12:58.060Z,18.90
2017-12-15T06:15:25.591Z,18.80
2017-12-15T06:17:53.183Z,18.80
2017-12-15T06:20:20.754Z,20.97
2017-12-15T06:22:48.454Z,20.37
2017-12-15T06:25:15.990Z,21.10
2017-12-15T06:27:43.505Z,18.93
2017-12-15T06:30:11.114Z,16.90
2017-12-15T06:32:38.703Z,14.00
2017-12-15T06:35:07.143Z,11.87
2017-12-15T06:37:34.710Z,9.13
2017-12-15T06:40:02.318Z,9.80
2017-12-15T06:42:29.938Z,8.70
2017-12-15T06:44:58.368Z,8.23
2017-12-15T06:47:26.051Z,8.73
2017-12-15T06:49:53.623Z,8.20
2017-12-15T06:52:21.345Z,7.83
2017-12-15T06:54:48.918Z,7.63
2017-12-15T06:57:16.506Z,7.23
2017-12-15T06:59:44.334Z,7.13
2017-12-15T07:02:14.226Z,7.07
2017-12-15T07:04:42.203Z,6.50
2017-12-15T07:07:10.557Z,6.80
2017-12-15T07:09:38.139Z,5.80
2017-12-15T07:12:05.654Z,6.10
2017-12-15T07:14:35.122Z,6.27
2017-12-15T07:17:02.702Z,6.20
2017-12-15T07:19:30.386Z,5.90
2017-12-15T07:21:57.936Z,8.40
2017-12-15T07:24:25.500Z,6.40
2017-12-15T07:26:52.999Z,6.63
2017-12-15T07:29:21.437Z,5.77
2017-12-15T07:31:48.988Z,6.13
2017-12-15T07:34:16.532Z,5.83
2017-12-15T07:36:44.121Z,5.40
2017-12-15T07:39:11.754Z,5.67
2017-12-15T07:41:40.531Z,5.47
2017-12-15T07:44:09.133Z,5.20
2017-12-15T07:46:36.743Z,5.20
2017-12-15T07:49:04.609Z,6.13
2017-12-15T07:51:32.184Z,5.67
2017-12-15T07:53:59.748Z,5.50
2017-12-15T07:56:27.305Z,5.40
2017-12-15T07:58:55.640Z,5.20
2017-12-15T08:01:25.161Z,5.60
2017-12-15T08:03:52.791Z,5.07
2017-12-15T08:06:20.323Z,5.00
2017-12-15T08:08:48.499Z,4.70
2017-12-15T08:11:16.818Z,6.00
2017-12-15T08:13:44.416Z,5.50
2017-12-15T08:16:14.434Z,5.27
2017-12-15T08:18:41.974Z,5.23
2017-12-15T08:21:09.732Z,5.73
2017-12-15T08:23:37.289Z,6.10
2017-12-15T08:26:05.922Z,5.17
2017-12-15T08:28:35.543Z,5.20
2017-12-15T08:31:04.662Z,5.03
2017-12-15T08:33:32.215Z,4.67
2017-12-15T08:35:59.738Z,5.10
2017-12-15T08:38:28.128Z,3.97
2017-12-15T08:40:55.659Z,2.83
2017-12-15T08:43:23.255Z,3.23
2017-12-15T08:45:51.156Z,3.10
2017-12-15T08:48:26.380Z,3.70
2017-12-15T08:50:53.979Z,3.13
2017-12-15T08:53:21.520Z,2.77
2017-12-15T08:55:49.121Z,2.63
2017-12-15T08:58:17.459Z,3.23
2017-12-15T09:00:45.038Z,3.30
2017-12-15T09:03:12.665Z,2.90
2017-12-15T09:05:40.241Z,2.60
2017-12-15T09:08:07.855Z,2.50
2017-12-15T09:10:36.199Z,2.40
2017-12-15T09:13:03.786Z,2.33
2017-12-15T09:15:31.967Z,2.13
2017-12-15T09:18:02.061Z,2.50
2017-12-15T09:20:29.681Z,2.00
2017-12-15T09:22:58.254Z,1.43
2017-12-15T09:25:26.219Z,2.20
2017-12-15T09:27:53.858Z,1.87
2017-12-15T09:30:22.218Z,1.30
2017-12-15T09:32:51.361Z,1.00
2017-12-15T09:35:18.963Z,1.70
2017-12-15T09:37:46.538Z,1.50
2017-12-15T09:40:14.169Z,1.60
2017-12-15T09:42:41.735Z,1.80
2017-12-15T09:45:09.378Z,1.30
2017-12-15T09:47:37.656Z,1.60
2017-12-15T09:50:05.229Z,1.40
2017-12-15T10:05:27.838Z,1.10
2017-12-15T10:07:55.384Z,1.83
2017-12-15T10:10:23.017Z,1.70
2017-12-15T10:12:50.547Z,1.90
2017-12-15T10:15:18.097Z,1.60
2017-12-15T10:17:45.691Z,1.70
2017-12-15T10:20:13.509Z,1.97
2017-12-15T10:22:41.078Z,1.83
2017-12-15T10:25:08.946Z,2.00
2017-12-15T10:27:36.655Z,2.53
2017-12-15T10:30:05.279Z,2.20
2017-12-15T10:32:33.830Z,2.37
2017-12-15T10:35:02.224Z,1.70
2017-12-15T10:37:29.878Z,2.97
2017-12-15T10:39:58.192Z,2.10
2017-12-15T10:42:26.170Z,2.10
2017-12-15T10:44:53.983Z,1.73
2017-12-15T10:47:21.673Z,1.73
2017-12-15T10:49:49.299Z,1.80
2017-12-15T10:52:17.430Z,1.70
2017-12-15T10:54:45.553Z,1.63
2017-12-15T10:57:13.114Z,1.80
2017-12-15T10:59:40.700Z,1.00
2017-12-15T11:02:08.539Z,1.20
2017-12-15T11:04:36.199Z,1.17
2017-12-15T11:07:03.765Z,1.17
2017-12-15T11:09:32.138Z,1.50
2017-12-15T11:11:59.691Z,1.37
2017-12-15T11:14:27.854Z,1.57
2017-12-15T11:16:55.491Z,1.30
2017-12-15T11:19:23.100Z,1.90
2017-12-15T11:21:50.653Z,5.30
2017-12-15T11:24:19.068Z,1.40
2017-12-15T11:26:46.654Z,1.87
2017-12-15T11:29:14.199Z,1.30
2017-12-15T11:31:42.214Z,0.80
2017-12-15T11:34:10.626Z,1.70
2017-12-15T11:36:38.644Z,0.90
2017-12-15T11:39:06.247Z,1.83
2017-12-15T11:41:33.821Z,1.77
2017-12-15T11:44:01.370Z,1.60
2017-12-15T11:46:28.924Z,1.20
2017-12-15T11:48:56.546Z,1.30
2017-12-15T11:51:24.085Z,1.60
2017-12-15T11:53:51.636Z,1.53
2017-12-15T11:56:19.270Z,1.30
2017-12-15T11:58:46.792Z,1.50
2017-12-15T12:01:15.063Z,1.70
2017-12-15T12:03:42.620Z,1.57
2017-12-15T12:06:10.369Z,1.40
2017-12-15T12:08:37.967Z,1.07
2017-12-15T12:11:05.618Z,1.30
2017-12-15T12:13:33.176Z,1.30
2017-12-15T12:16:00.816Z,2.20
2017-12-15T12:18:28.596Z,1.87
2017-12-15T12:20:56.217Z,1.73
2017-12-15T12:23:23.763Z,2.10
2017-12-15T12:25:51.568Z,1.70
2017-12-15T12:28:19.180Z,1.67
2017-12-15T12:30:47.484Z,1.83
2017-12-15T12:33:15.133Z,1.50
2017-12-15T12:35:42.653Z,1.40
2017-12-15T12:38:10.656Z,1.00
2017-12-15T12:40:38.191Z,2.03
2017-12-15T12:43:05.759Z,1.30
2017-12-15T12:45:39.433Z,1.20
2017-12-15T12:48:08.431Z,2.00
2017-12-15T12:50:36.001Z,1.83
2017-12-15T12:53:03.580Z,1.70
2017-12-15T12:55:31.131Z,2.80
2017-12-15T12:57:59.554Z,2.10
2017-12-15T13:00:27.786Z,2.03
2017-12-15T13:02:55.323Z,2.43
2017-12-15T13:05:23.136Z,3.47
2017-12-15T13:07:50.698Z,2.13
2017-12-15T13:10:18.258Z,3.17
2017-12-15T13:12:45.814Z,1.53
2017-12-15T13:15:14.460Z,1.90
2017-12-15T13:17:42.500Z,2.53
2017-12-15T13:20:10.082Z,1.70
2017-12-15T13:22:37.697Z,1.60
2017-12-15T13:25:06.114Z,2.10
2017-12-15T13:27:34.784Z,2.10
2017-12-15T13:30:02.901Z,2.30
2017-12-15T13:32:32.024Z,2.43
2017-12-15T13:34:59.583Z,3.80
2017-12-15T13:37:27.756Z,1.80
2017-12-15T13:39:56.153Z,1.90
2017-12-15T13:42:23.762Z,1.50
2017-12-15T13:44:51.541Z,1.60
2017-12-15T13:47:20.198Z,1.80
2017-12-15T13:49:47.792Z,1.70
2017-12-15T13:52:16.211Z,2.50
2017-12-15T13:54:44.842Z,2.33
2017-12-15T13:57:12.432Z,2.17
2017-12-15T13:59:40.039Z,2.73
2017-12-15T14:02:07.637Z,2.87
2017-12-15T14:04:35.994Z,1.90
2017-12-15T14:07:03.590Z,2.20
2017-12-15T14:09:31.902Z,2.00
2017-12-15T14:11:59.611Z,1.77
2017-12-15T14:14:27.159Z,1.70
2017-12-15T14:16:54.708Z,1.97
2017-12-15T14:19:22.251Z,2.40
2017-12-15T14:21:49.858Z,1.93
2017-12-15T14:24:19.418Z,2.60
2017-12-15T14:26:47.530Z,3.60
2017-12-15T14:29:15.841Z,3.70
2017-12-15T14:31:43.386Z,3.20
2017-12-15T14:34:11.779Z,2.53
2017-12-15T14:36:39.367Z,2.53
2017-12-15T14:39:07.001Z,3.07
2017-12-15T14:41:36.006Z,2.50
2017-12-15T14:44:03.667Z,2.90
2017-12-15T14:46:31.208Z,4.37
2017-12-15T14:48:58.780Z,4.33
2017-12-15T14:51:26.505Z,5.00
2017-12-15T14:53:54.118Z,2.10
2017-12-15T14:56:22.367Z,2.23
2017-12-15T14:58:51.661Z,2.07
2017-12-15T15:01:19.596Z,1.97
2017-12-15T15:03:47.232Z,2.70
2017-12-15T15:06:14.819Z,2.03
2017-12-15T15:08:43.138Z,1.97
2017-12-15T15:11:11.679Z,1.97
2017-12-15T15:13:40.780Z,1.83
2017-12-15T15:16:08.378Z,2.33
2017-12-15T15:18:36.808Z,2.40
2017-12-15T15:21:04.556Z,2.80
2017-12-15T15:23:32.833Z,2.43
2017-12-15T15:26:00.361Z,2.50
2017-12-15T15:28:27.929Z,1.90
2017-12-15T15:30:56.522Z,2.60
2017-12-15T15:33:24.084Z,2.43
2017-12-15T15:35:51.607Z,2.10
2017-12-15T15:38:20.169Z,3.60
2017-12-15T15:40:47.764Z,2.50
2017-12-15T15:43:15.552Z,8.40
2017-12-15T15:45:43.271Z,4.90
2017-12-15T15:48:11.607Z,4.60
2017-12-15T15:50:39.132Z,6.73
2017-12-15T15:53:07.497Z,6.70
2017-12-15T15:55:36.138Z,3.80
2017-12-15T15:58:03.743Z,3.80
2017-12-15T16:00:31.312Z,3.50
2017-12-15T16:02:58.970Z,5.20
2017-12-15T16:05:27.305Z,2.10
2017-12-15T16:07:54.872Z,3.23
2017-12-15T16:10:22.493Z,5.60
2017-12-15T16:12:50.079Z,7.43
2017-12-15T16:15:18.327Z,8.60
2017-12-15T16:17:45.890Z,9.50
2017-12-15T16:20:13.489Z,22.20
2017-12-15T16:22:41.075Z,35.13
2017-12-15T16:25:09.192Z,34.97
2017-12-15T16:27:36.890Z,15.57
2017-12-15T16:30:05.172Z,17.70
2017-12-15T16:32:32.748Z,6.50
2017-12-15T16:35:01.099Z,6.37
2017-12-15T16:37:28.844Z,4.90
2017-12-15T16:39:56.445Z,5.83
2017-12-15T16:42:24.020Z,4.27
2017-12-15T16:44:51.607Z,2.90
2017-12-15T16:47:19.227Z,4.20
2017-12-15T16:49:46.860Z,5.40
2017-12-15T16:52:14.576Z,4.20
2017-12-15T16:54:42.135Z,3.73
2017-12-15T16:57:09.683Z,2.67
2017-12-15T16:59:37.298Z,4.17
2017-12-15T17:02:04.853Z,3.47
2017-12-15T17:04:32.411Z,3.87
2017-12-15T17:07:00.019Z,4.00
2017-12-15T17:09:28.357Z,3.27
2017-12-15T17:11:56.010Z,5.00
2017-12-15T17:14:23.615Z,7.53
2017-12-15T17:16:51.165Z,4.83
2017-12-15T17:19:18.847Z,6.33
2017-12-15T17:21:46.401Z,3.30
2017-12-15T17:24:14.044Z,4.93
2017-12-15T17:26:41.622Z,4.20
2017-12-15T17:29:10.044Z,6.50
2017-12-15T17:31:37.634Z,3.30
2017-12-15T17:34:05.209Z,3.07
2017-12-15T17:36:32.770Z,4.13
2017-12-15T17:39:00.377Z,3.90
2017-12-15T17:41:28.870Z,5.70
2017-12-15T17:43:56.411Z,6.57
2017-12-15T17:46:23.988Z,4.20
2017-12-15T17:48:51.558Z,2.87
2017-12-15T17:51:19.148Z,2.10
2017-12-15T17:53:46.693Z,3.70
2017-12-15T17:56:14.327Z,3.23
2017-12-15T17:58:41.896Z,2.50
2017-12-15T18:01:09.458Z,2.53
2017-12-15T18:03:37.068Z,4.23
2017-12-15T18:06:04.645Z,3.30
2017-12-15T18:08:32.922Z,4.87
2017-12-15T18:11:00.451Z,3.90
2017-12-15T18:13:28.072Z,4.10
2017-12-15T18:15:55.642Z,5.10
2017-12-15T18:18:23.658Z,5.20
2017-12-15T18:20:51.211Z,2.73
2017-12-15T18:23:19.851Z,3.07
2017-12-15T18:25:47.380Z,4.30
2017-12-15T18:28:14.903Z,4.60
2017-12-15T18:30:42.449Z,5.13
2017-12-15T18:33:10.014Z,3.33
2017-12-15T18:35:37.588Z,3.10
2017-12-15T18:38:05.160Z,4.60
2017-12-15T18:40:33.498Z,4.83
2017-12-15T18:43:01.115Z,6.70
2017-12-15T18:45:29.002Z,7.50
2017-12-15T18:47:56.589Z,5.07
2017-12-15T18:50:24.180Z,5.70
2017-12-15T18:52:52.009Z,5.87
2017-12-15T18:55:19.562Z,8.67
2017-12-15T18:57:47.132Z,5.80
2017-12-15T19:00:14.836Z,3.27
2017-12-15T19:02:43.164Z,4.47
2017-12-15T19:05:10.798Z,4.27
2017-12-15T19:07:38.381Z,3.90
2017-12-15T19:10:06.902Z,3.80
2017-12-15T19:12:34.518Z,4.30
2017-12-15T19:15:02.250Z,3.90
2017-12-15T19:17:31.614Z,6.13
2017-12-15T19:19:59.262Z,4.67
2017-12-15T19:22:26.863Z,3.73
2017-12-15T19:24:54.440Z,3.37
2017-12-15T19:27:22.846Z,3.37
2017-12-15T19:29:50.431Z,3.80
2017-12-15T19:32:18.038Z,4.00
2017-12-15T19:34:46.379Z,3.93
2017-12-15T19:37:13.998Z,4.40
2017-12-15T19:39:41.590Z,6.80
2017-12-15T19:42:09.155Z,6.03
2017-12-15T19:44:36.738Z,5.80
2017-12-15T19:47:04.359Z,5.50
2017-12-15T19:49:32.004Z,4.80
2017-12-15T19:51:59.607Z,4.70
2017-12-15T19:54:27.908Z,4.43
2017-12-15T19:56:56.306Z,5.93
2017-12-15T19:59:25.693Z,5.40
2017-12-15T20:01:53.213Z,5.50
2017-12-15T20:04:20.853Z,4.87
2017-12-15T20:06:48.473Z,5.50
2017-12-15T20:09:16.923Z,4.90
2017-12-15T20:11:45.522Z,5.60
2017-12-15T20:14:13.078Z,5.87
2017-12-15T20:16:40.716Z,6.30
2017-12-15T20:19:08.446Z,6.27
2017-12-15T20:21:36.076Z,6.80
2017-12-15T20:24:03.686Z,5.17
2017-12-15T20:26:31.249Z,5.50
2017-12-15T20:28:58.866Z,5.47
2017-12-15T20:31:26.377Z,5.30
2017-12-15T20:33:53.952Z,5.10
2017-12-15T20:36:21.622Z,7.73
2017-12-15T20:38:49.175Z,8.57
2017-12-15T20:41:16.714Z,8.53
2017-12-15T20:43:44.295Z,9.20
2017-12-15T20:46:12.166Z,11.03
2017-12-15T20:48:39.735Z,9.30
2017-12-15T20:51:07.287Z,6.57
2017-12-15T20:53:34.943Z,7.13
2017-12-15T20:56:03.163Z,6.20
2017-12-15T20:58:31.535Z,6.17
2017-12-15T21:01:00.970Z,6.90
2017-12-15T21:03:28.847Z,7.10
2017-12-15T21:05:56.463Z,7.50
2017-12-15T21:08:24.799Z,6.87
2017-12-15T21:10:52.403Z,6.83
2017-12-15T21:13:20.771Z,6.83
2017-12-15T21:15:48.312Z,6.70
2017-12-15T21:18:15.945Z,6.67
2017-12-15T21:20:43.557Z,6.00
2017-12-15T21:23:11.875Z,6.60
2017-12-15T21:25:39.877Z,7.20
2017-12-15T21:28:07.465Z,6.80
2017-12-15T21:30:35.875Z,6.87
2017-12-15T21:33:03.429Z,7.30
2017-12-15T21:35:30.992Z,7.67
2017-12-15T21:37:59.279Z,6.50
2017-12-15T21:40:26.935Z,5.97
2017-12-15T21:42:54.543Z,4.93
2017-12-15T21:45:22.150Z,5.93
2017-12-15T21:47:49.703Z,6.57
2017-12-15T21:50:17.299Z,6.40
2017-12-15T21:52:44.880Z,6.20
2017-12-15T21:55:12.454Z,7.30
2017-12-15T21:57:40.932Z,6.80
2017-12-15T22:00:08.614Z,6.60
2017-12-15T22:02:36.951Z,6.43
2017-12-15T22:05:06.151Z,7.90
2017-12-15T22:07:33.768Z,5.33
2017-12-15T22:10:02.358Z,5.43
2017-12-15T22:12:29.904Z,4.60
2017-12-15T22:14:58.256Z,4.60
2017-12-15T22:17:25.778Z,5.10
2017-12-15T22:19:53.369Z,5.03
2017-12-15T22:22:21.016Z,4.83
2017-12-15T22:24:48.618Z,5.00
2017-12-15T22:27:16.923Z,4.73
2017-12-15T22:29:44.476Z,4.53
2017-12-15T22:32:12.075Z,5.80
2017-12-15T22:34:40.229Z,6.00
2017-12-15T22:37:08.559Z,6.13
2017-12-15T22:39:36.172Z,6.07
2017-12-15T22:42:03.734Z,5.83
2017-12-15T22:44:31.298Z,6.63
2017-12-15T22:46:58.859Z,7.90
2017-12-15T22:49:26.385Z,9.10
2017-12-15T22:51:53.964Z,9.47
2017-12-15T22:54:21.522Z,8.30
2017-12-15T22:56:49.092Z,8.20
2017-12-15T22:59:16.709Z,8.90
2017-12-15T23:01:45.022Z,9.00
2017-12-15T23:04:12.682Z,8.40
2017-12-15T23:06:40.245Z,7.70
2017-12-15T23:09:07.852Z,6.63
2017-12-15T23:11:35.426Z,5.90
2017-12-15T23:14:03.027Z,5.90
2017-12-15T23:16:30.582Z,5.50
2017-12-15T23:18:58.183Z,5.20
2017-12-15T23:21:25.764Z,5.70
2017-12-15T23:23:54.130Z,6.40
2017-12-15T23:26:22.520Z,5.90
2017-12-15T23:28:51.120Z,5.90
2017-12-15T23:31:19.485Z,5.63
2017-12-15T23:33:47.850Z,5.60
2017-12-15T23:36:15.391Z,5.23
2017-12-15T23:38:42.960Z,5.10
2017-12-15T23:41:10.698Z,4.30
2017-12-15T23:43:38.252Z,4.70
2017-12-15T23:46:06.215Z,5.70
2017-12-15T23:48:33.756Z,4.30
2017-12-15T23:51:01.340Z,4.13
2017-12-15T23:53:28.897Z,4.00
2017-12-15T23:56:08.503Z,4.50
2017-12-15T23:58:36.208Z,4.10
